Huntington Beach, California
Current Conditions -  °F | °C
As of 11:53 AM on Thursday 30 Oct 2014 (Local Time) from KSNA Reporting Station
Scattered Clouds Scattered Clouds  
Wind Chill: 24°   Ceiling: Unl
Heat Index: 24°   Visibility: 10mi
Dew Point: 16°   Wind: 9mph
Humidity: 60%   Direction: 210°SSW
Pressure: 29.98"   Gusts: NA
Location:  33.68°N, 118°W
Report Text: KSNA 301853Z 21008KT 10SM FEW180 SCT300 24/16 A2998 RMK AO2 SLP151 T02440161
Loading
Personal Weather Stations






























Interactive Weather Map
Tropical Storm Tracking
New forecast layout! Learn more

10-Day Weather Forecast

Advertisements
Track Severe Weather on mobile